sensor_id;sensor_type;location;lat;lon;timestamp;pressure;altitude;pressure_sealevel;temperature;humidity
64340;BME280;63709;53.258;-8.814;2023-05-25T00:01:24;103310.50;;;17.74;100.00
64340;BME280;63709;53.258;-8.814;2023-05-25T00:03:51;103300.88;;;17.55;100.00
64340;BME280;63709;53.258;-8.814;2023-05-25T00:06:20;103303.94;;;17.63;100.00
64340;BME280;63709;53.258;-8.814;2023-05-25T00:08:46;103307.63;;;17.62;100.00
64340;BME280;63709;53.258;-8.814;2023-05-25T00:11:14;103288.06;;;17.45;100.00
64340;BME280;63709;53.258;-8.814;2023-05-25T00:13:41;103296.66;;;17.51;100.00
64340;BME280;63709;53.258;-8.814;2023-05-25T00:16:07;103303.03;;;17.50;100.00
64340;BME280;63709;53.258;-8.814;2023-05-25T00:18:32;103308.88;;;17.57;100.00
64340;BME280;63709;53.258;-8.814;2023-05-25T00:20:58;103297.88;;;17.60;100.00
64340;BME280;63709;53.258;-8.814;2023-05-25T00:23:29;103305.91;;;17.61;100.00
64340;BME280;63709;53.258;-8.814;2023-05-25T00:25:55;103288.56;;;17.51;100.00
64340;BME280;63709;53.258;-8.814;2023-05-25T00:28:21;103299.22;;;17.67;100.00
64340;BME280;63709;53.258;-8.814;2023-05-25T00:30:47;103301.44;;;17.60;100.00
64340;BME280;63709;53.258;-8.814;2023-05-25T00:33:14;103309.75;;;17.57;100.00
64340;BME280;63709;53.258;-8.814;2023-05-25T00:35:41;103298.38;;;17.52;100.00
64340;BME280;63709;53.258;-8.814;2023-05-25T00:38:17;103306.97;;;17.59;100.00
64340;BME280;63709;53.258;-8.814;2023-05-25T00:40:45;103317.66;;;17.60;100.00
64340;BME280;63709;53.258;-8.814;2023-05-25T00:43:12;103316.91;;;17.58;100.00
64340;BME280;63709;53.258;-8.814;2023-05-25T00:45:38;103303.78;;;17.52;100.00
64340;BME280;63709;53.258;-8.814;2023-05-25T00:48:04;103321.13;;;17.62;100.00
64340;BME280;63709;53.258;-8.814;2023-05-25T00:50:38;103325.38;;;17.52;100.00
64340;BME280;63709;53.258;-8.814;2023-05-25T00:53:05;103321.63;;;17.55;100.00
64340;BME280;63709;53.258;-8.814;2023-05-25T00:55:38;103320.19;;;17.49;100.00
64340;BME280;63709;53.258;-8.814;2023-05-25T00:58:04;103326.16;;;17.54;100.00
64340;BME280;63709;53.258;-8.814;2023-05-25T01:00:33;103325.28;;;17.54;100.00
64340;BME280;63709;53.258;-8.814;2023-05-25T01:03:05;103328.41;;;17.48;100.00
64340;BME280;63709;53.258;-8.814;2023-05-25T01:05:37;103337.06;;;17.53;100.00
64340;BME280;63709;53.258;-8.814;2023-05-25T01:08:03;103337.06;;;17.38;100.00
64340;BME280;63709;53.258;-8.814;2023-05-25T01:10:34;103317.78;;;17.45;100.00
64340;BME280;63709;53.258;-8.814;2023-05-25T01:13:03;103309.88;;;17.41;100.00
64340;BME280;63709;53.258;-8.814;2023-05-25T01:15:31;103329.94;;;17.52;100.00
64340;BME280;63709;53.258;-8.814;2023-05-25T01:17:58;103318.56;;;17.32;100.00
64340;BME280;63709;53.258;-8.814;2023-05-25T01:20:25;103321.84;;;17.23;100.00
64340;BME280;63709;53.258;-8.814;2023-05-25T01:22:58;103328.69;;;17.14;100.00
64340;BME280;63709;53.258;-8.814;2023-05-25T01:28:04;103306.91;;;17.17;100.00
64340;BME280;63709;53.258;-8.814;2023-05-25T01:30:39;103326.50;;;17.21;100.00
64340;BME280;63709;53.258;-8.814;2023-05-25T01:33:06;103323.13;;;17.32;100.00
64340;BME280;63709;53.258;-8.814;2023-05-25T01:35:35;103317.59;;;17.33;100.00
64340;BME280;63709;53.258;-8.814;2023-05-25T01:38:01;103303.25;;;17.18;100.00
64340;BME280;63709;53.258;-8.814;2023-05-25T01:40:27;103306.06;;;17.17;100.00
64340;BME280;63709;53.258;-8.814;2023-05-25T01:42:53;103325.81;;;17.03;100.00
64340;BME280;63709;53.258;-8.814;2023-05-25T01:45:19;103329.28;;;17.20;100.00
64340;BME280;63709;53.258;-8.814;2023-05-25T01:48:01;103324.75;;;17.06;100.00
64340;BME280;63709;53.258;-8.814;2023-05-25T01:53:50;103327.69;;;16.87;100.00
64340;BME280;63709;53.258;-8.814;2023-05-25T01:56:20;103315.31;;;16.99;100.00
64340;BME280;63709;53.258;-8.814;2023-05-25T01:58:49;103326.47;;;16.92;100.00
64340;BME280;63709;53.258;-8.814;2023-05-25T02:01:17;103321.56;;;16.85;100.00
64340;BME280;63709;53.258;-8.814;2023-05-25T02:03:46;103317.66;;;16.75;100.00
64340;BME280;63709;53.258;-8.814;2023-05-25T02:06:15;103315.09;;;16.87;100.00
64340;BME280;63709;53.258;-8.814;2023-05-25T02:08:41;103319.34;;;16.91;100.00
64340;BME280;63709;53.258;-8.814;2023-05-25T02:11:08;103303.03;;;16.79;100.00
64340;BME280;63709;53.258;-8.814;2023-05-25T02:13:33;103310.94;;;16.82;100.00
64340;BME280;63709;53.258;-8.814;2023-05-25T02:15:59;103297.63;;;16.79;100.00
64340;BME280;63709;53.258;-8.814;2023-05-25T02:18:26;103316.34;;;16.82;100.00
64340;BME280;63709;53.258;-8.814;2023-05-25T02:20:52;103313.75;;;16.80;100.00
64340;BME280;63709;53.258;-8.814;2023-05-25T02:23:20;103296.69;;;16.80;100.00
64340;BME280;63709;53.258;-8.814;2023-05-25T02:25:45;103288.97;;;16.74;100.00
64340;BME280;63709;53.258;-8.814;2023-05-25T02:28:13;103321.19;;;16.91;100.00
64340;BME280;63709;53.258;-8.814;2023-05-25T02:30:39;103305.94;;;16.90;100.00
64340;BME280;63709;53.258;-8.814;2023-05-25T02:33:04;103322.81;;;16.93;100.00
64340;BME280;63709;53.258;-8.814;2023-05-25T02:35:30;103309.97;;;16.83;100.00
64340;BME280;63709;53.258;-8.814;2023-05-25T02:37:57;103325.00;;;16.87;100.00
64340;BME280;63709;53.258;-8.814;2023-05-25T02:40:28;103317.19;;;16.82;100.00
64340;BME280;63709;53.258;-8.814;2023-05-25T02:42:54;103335.59;;;16.90;100.00
64340;BME280;63709;53.258;-8.814;2023-05-25T02:45:20;103332.53;;;16.82;100.00
64340;BME280;63709;53.258;-8.814;2023-05-25T02:47:46;103316.53;;;16.79;100.00
64340;BME280;63709;53.258;-8.814;2023-05-25T02:50:11;103331.78;;;16.80;100.00
64340;BME280;63709;53.258;-8.814;2023-05-25T02:52:40;103334.47;;;16.80;100.00
64340;BME280;63709;53.258;-8.814;2023-05-25T02:55:06;103317.25;;;16.66;100.00
64340;BME280;63709;53.258;-8.814;2023-05-25T02:57:34;103336.19;;;16.81;100.00
64340;BME280;63709;53.258;-8.814;2023-05-25T03:00:02;103322.63;;;16.66;100.00
64340;BME280;63709;53.258;-8.814;2023-05-25T03:02:29;103333.25;;;16.69;100.00
64340;BME280;63709;53.258;-8.814;2023-05-25T03:04:55;103334.53;;;16.48;100.00
64340;BME280;63709;53.258;-8.814;2023-05-25T03:07:20;103334.56;;;16.62;100.00
64340;BME280;63709;53.258;-8.814;2023-05-25T03:09:47;103318.75;;;16.56;100.00
64340;BME280;63709;53.258;-8.814;2023-05-25T03:12:13;103331.94;;;16.61;100.00
64340;BME280;63709;53.258;-8.814;2023-05-25T03:14:39;103335.84;;;16.71;100.00
64340;BME280;63709;53.258;-8.814;2023-05-25T03:17:05;103344.28;;;16.81;100.00
64340;BME280;63709;53.258;-8.814;2023-05-25T03:19:31;103341.34;;;16.69;100.00
64340;BME280;63709;53.258;-8.814;2023-05-25T03:21:57;103338.47;;;16.73;100.00
64340;BME280;63709;53.258;-8.814;2023-05-25T03:24:24;103317.53;;;16.62;100.00
64340;BME280;63709;53.258;-8.814;2023-05-25T03:26:51;103349.75;;;16.79;100.00
64340;BME280;63709;53.258;-8.814;2023-05-25T03:29:16;103344.22;;;16.66;100.00
64340;BME280;63709;53.258;-8.814;2023-05-25T03:31:42;103341.00;;;16.60;100.00
64340;BME280;63709;53.258;-8.814;2023-05-25T03:34:07;103344.41;;;16.63;100.00
64340;BME280;63709;53.258;-8.814;2023-05-25T03:36:33;103351.84;;;16.44;100.00
64340;BME280;63709;53.258;-8.814;2023-05-25T03:38:58;103350.38;;;16.38;100.00
64340;BME280;63709;53.258;-8.814;2023-05-25T03:41:25;103359.59;;;16.50;100.00
64340;BME280;63709;53.258;-8.814;2023-05-25T03:43:51;103350.47;;;16.37;100.00
64340;BME280;63709;53.258;-8.814;2023-05-25T03:46:18;103343.44;;;16.34;100.00
64340;BME280;63709;53.258;-8.814;2023-05-25T03:48:43;103358.91;;;16.47;100.00
64340;BME280;63709;53.258;-8.814;2023-05-25T03:51:09;103351.16;;;16.40;100.00
64340;BME280;63709;53.258;-8.814;2023-05-25T03:53:35;103354.97;;;16.52;100.00
64340;BME280;63709;53.258;-8.814;2023-05-25T03:56:00;103357.19;;;16.60;100.00
64340;BME280;63709;53.258;-8.814;2023-05-25T03:58:26;103351.22;;;16.55;100.00
64340;BME280;63709;53.258;-8.814;2023-05-25T04:00:52;103347.09;;;16.63;100.00
64340;BME280;63709;53.258;-8.814;2023-05-25T04:03:19;103361.25;;;16.67;100.00
64340;BME280;63709;53.258;-8.814;2023-05-25T04:05:45;103355.38;;;16.60;100.00
64340;BME280;63709;53.258;-8.814;2023-05-25T04:08:14;103361.44;;;16.64;100.00
64340;BME280;63709;53.258;-8.814;2023-05-25T04:10:47;103368.72;;;16.48;100.00
64340;BME280;63709;53.258;-8.814;2023-05-25T04:13:13;103377.50;;;16.51;100.00
64340;BME280;63709;53.258;-8.814;2023-05-25T04:15:38;103365.63;;;16.54;100.00
64340;BME280;63709;53.258;-8.814;2023-05-25T04:18:05;103374.63;;;16.54;100.00
64340;BME280;63709;53.258;-8.814;2023-05-25T04:20:31;103364.38;;;16.45;100.00
64340;BME280;63709;53.258;-8.814;2023-05-25T04:22:56;103374.53;;;16.56;100.00
64340;BME280;63709;53.258;-8.814;2023-05-25T04:25:22;103391.94;;;16.50;100.00
64340;BME280;63709;53.258;-8.814;2023-05-25T04:27:54;103378.94;;;16.27;100.00
64340;BME280;63709;53.258;-8.814;2023-05-25T04:30:21;103395.69;;;16.48;100.00
64340;BME280;63709;53.258;-8.814;2023-05-25T04:32:47;103374.09;;;16.17;100.00
64340;BME280;63709;53.258;-8.814;2023-05-25T04:35:13;103378.16;;;16.25;100.00
64340;BME280;63709;53.258;-8.814;2023-05-25T04:37:39;103401.34;;;16.43;100.00
64340;BME280;63709;53.258;-8.814;2023-05-25T04:40:11;103366.75;;;16.35;100.00
64340;BME280;63709;53.258;-8.814;2023-05-25T04:42:39;103404.63;;;16.48;100.00
64340;BME280;63709;53.258;-8.814;2023-05-25T04:45:06;103403.16;;;16.58;100.00
64340;BME280;63709;53.258;-8.814;2023-05-25T04:47:34;103408.44;;;16.60;100.00
64340;BME280;63709;53.258;-8.814;2023-05-25T04:50:03;103393.06;;;16.46;100.00
64340;BME280;63709;53.258;-8.814;2023-05-25T04:52:29;103407.47;;;16.61;100.00
64340;BME280;63709;53.258;-8.814;2023-05-25T04:54:55;103400.56;;;16.71;100.00
64340;BME280;63709;53.258;-8.814;2023-05-25T04:57:20;103401.72;;;16.67;100.00
64340;BME280;63709;53.258;-8.814;2023-05-25T04:59:46;103404.84;;;16.75;100.00
64340;BME280;63709;53.258;-8.814;2023-05-25T05:02:12;103408.59;;;16.73;100.00
64340;BME280;63709;53.258;-8.814;2023-05-25T05:04:37;103397.81;;;16.73;100.00
64340;BME280;63709;53.258;-8.814;2023-05-25T05:07:05;103406.06;;;16.69;100.00
64340;BME280;63709;53.258;-8.814;2023-05-25T05:09:32;103399.88;;;16.67;100.00
64340;BME280;63709;53.258;-8.814;2023-05-25T05:11:57;103392.25;;;16.60;100.00
64340;BME280;63709;53.258;-8.814;2023-05-25T05:14:24;103398.34;;;16.63;100.00
64340;BME280;63709;53.258;-8.814;2023-05-25T05:16:50;103403.91;;;16.76;100.00
64340;BME280;63709;53.258;-8.814;2023-05-25T05:19:16;103413.38;;;16.67;100.00
64340;BME280;63709;53.258;-8.814;2023-05-25T05:21:42;103405.66;;;16.77;100.00
64340;BME280;63709;53.258;-8.814;2023-05-25T05:24:08;103414.94;;;16.72;100.00
64340;BME280;63709;53.258;-8.814;2023-05-25T05:26:40;103404.47;;;16.51;100.00
64340;BME280;63709;53.258;-8.814;2023-05-25T05:29:06;103418.28;;;16.77;100.00
64340;BME280;63709;53.258;-8.814;2023-05-25T05:31:31;103416.25;;;16.80;100.00
64340;BME280;63709;53.258;-8.814;2023-05-25T05:33:57;103423.41;;;16.65;100.00
64340;BME280;63709;53.258;-8.814;2023-05-25T05:36:22;103419.31;;;16.58;100.00
64340;BME280;63709;53.258;-8.814;2023-05-25T05:38:50;103422.72;;;16.62;100.00
64340;BME280;63709;53.258;-8.814;2023-05-25T05:41:15;103413.88;;;16.44;100.00
64340;BME280;63709;53.258;-8.814;2023-05-25T05:43:41;103425.94;;;16.53;100.00
64340;BME280;63709;53.258;-8.814;2023-05-25T05:46:08;103407.44;;;16.47;100.00
64340;BME280;63709;53.258;-8.814;2023-05-25T05:48:37;103432.88;;;16.57;100.00
64340;BME280;63709;53.258;-8.814;2023-05-25T05:51:04;103417.22;;;16.63;100.00
64340;BME280;63709;53.258;-8.814;2023-05-25T05:53:30;103403.91;;;16.60;100.00
64340;BME280;63709;53.258;-8.814;2023-05-25T05:56:02;103420.44;;;16.70;100.00
64340;BME280;63709;53.258;-8.814;2023-05-25T05:58:28;103420.09;;;16.76;100.00
64340;BME280;63709;53.258;-8.814;2023-05-25T06:00:54;103443.94;;;16.84;100.00
64340;BME280;63709;53.258;-8.814;2023-05-25T06:03:21;103443.94;;;16.84;100.00
64340;BME280;63709;53.258;-8.814;2023-05-25T06:05:46;103432.19;;;16.53;100.00
64340;BME280;63709;53.258;-8.814;2023-05-25T06:08:12;103442.72;;;16.58;100.00
64340;BME280;63709;53.258;-8.814;2023-05-25T06:10:38;103445.84;;;16.66;100.00
64340;BME280;63709;53.258;-8.814;2023-05-25T06:13:04;103451.25;;;16.66;100.00
64340;BME280;63709;53.258;-8.814;2023-05-25T06:15:39;103455.53;;;16.54;100.00
64340;BME280;63709;53.258;-8.814;2023-05-25T06:18:06;103441.44;;;16.33;100.00
64340;BME280;63709;53.258;-8.814;2023-05-25T06:20:33;103448.91;;;16.44;100.00
64340;BME280;63709;53.258;-8.814;2023-05-25T06:22:59;103442.56;;;16.45;100.00
64340;BME280;63709;53.258;-8.814;2023-05-25T06:25:26;103455.66;;;16.67;100.00
64340;BME280;63709;53.258;-8.814;2023-05-25T06:27:51;103453.16;;;16.64;100.00
64340;BME280;63709;53.258;-8.814;2023-05-25T06:30:17;103455.88;;;16.80;100.00
64340;BME280;63709;53.258;-8.814;2023-05-25T06:32:43;103465.75;;;16.79;100.00
64340;BME280;63709;53.258;-8.814;2023-05-25T06:35:08;103455.31;;;16.89;100.00
64340;BME280;63709;53.258;-8.814;2023-05-25T06:37:36;103444.09;;;16.81;100.00
64340;BME280;63709;53.258;-8.814;2023-05-25T06:40:04;103453.13;;;16.96;100.00
64340;BME280;63709;53.258;-8.814;2023-05-25T06:42:35;103457.75;;;17.08;100.00
64340;BME280;63709;53.258;-8.814;2023-05-25T06:45:03;103457.88;;;17.06;100.00
64340;BME280;63709;53.258;-8.814;2023-05-25T06:47:29;103461.03;;;17.13;100.00
64340;BME280;63709;53.258;-8.814;2023-05-25T06:49:56;103452.00;;;17.14;100.00
64340;BME280;63709;53.258;-8.814;2023-05-25T06:52:23;103451.44;;;17.23;100.00
64340;BME280;63709;53.258;-8.814;2023-05-25T06:54:56;103453.84;;;17.13;100.00
64340;BME280;63709;53.258;-8.814;2023-05-25T06:57:22;103458.78;;;16.91;100.00
64340;BME280;63709;53.258;-8.814;2023-05-25T06:59:48;103453.34;;;17.07;100.00
64340;BME280;63709;53.258;-8.814;2023-05-25T07:02:15;103455.16;;;17.06;100.00
64340;BME280;63709;53.258;-8.814;2023-05-25T07:04:44;103456.59;;;17.12;100.00
64340;BME280;63709;53.258;-8.814;2023-05-25T07:07:10;103453.06;;;17.26;100.00
64340;BME280;63709;53.258;-8.814;2023-05-25T07:09:37;103437.38;;;17.32;100.00
64340;BME280;63709;53.258;-8.814;2023-05-25T07:12:02;103446.16;;;17.36;100.00
64340;BME280;63709;53.258;-8.814;2023-05-25T07:14:31;103454.03;;;17.39;100.00
64340;BME280;63709;53.258;-8.814;2023-05-25T07:16:57;103451.66;;;17.49;100.00
64340;BME280;63709;53.258;-8.814;2023-05-25T07:19:22;103453.31;;;17.51;100.00
64340;BME280;63709;53.258;-8.814;2023-05-25T07:21:48;103457.72;;;17.38;100.00
64340;BME280;63709;53.258;-8.814;2023-05-25T07:24:15;103453.50;;;17.48;100.00
64340;BME280;63709;53.258;-8.814;2023-05-25T07:26:41;103448.47;;;17.42;100.00
64340;BME280;63709;53.258;-8.814;2023-05-25T07:29:09;103455.03;;;17.52;100.00
64340;BME280;63709;53.258;-8.814;2023-05-25T07:31:37;103455.34;;;17.62;100.00
64340;BME280;63709;53.258;-8.814;2023-05-25T07:34:03;103458.94;;;17.77;100.00
64340;BME280;63709;53.258;-8.814;2023-05-25T07:36:29;103462.28;;;17.95;100.00
64340;BME280;63709;53.258;-8.814;2023-05-25T07:38:54;103469.06;;;17.87;100.00
64340;BME280;63709;53.258;-8.814;2023-05-25T07:41:21;103467.78;;;17.93;100.00
64340;BME280;63709;53.258;-8.814;2023-05-25T07:43:47;103467.41;;;17.99;100.00
64340;BME280;63709;53.258;-8.814;2023-05-25T07:46:12;103475.91;;;17.93;100.00
64340;BME280;63709;53.258;-8.814;2023-05-25T07:48:44;103461.81;;;17.74;100.00
64340;BME280;63709;53.258;-8.814;2023-05-25T07:51:10;103451.28;;;17.83;100.00
64340;BME280;63709;53.258;-8.814;2023-05-25T07:53:36;103485.84;;;17.93;100.00
64340;BME280;63709;53.258;-8.814;2023-05-25T07:56:02;103480.75;;;18.02;100.00
64340;BME280;63709;53.258;-8.814;2023-05-25T07:58:29;103486.81;;;18.06;100.00
64340;BME280;63709;53.258;-8.814;2023-05-25T08:00:54;103489.53;;;18.06;100.00
64340;BME280;63709;53.258;-8.814;2023-05-25T08:03:21;103481.59;;;18.17;100.00
64340;BME280;63709;53.258;-8.814;2023-05-25T08:05:47;103494.19;;;18.31;100.00
64340;BME280;63709;53.258;-8.814;2023-05-25T08:08:16;103490.78;;;18.42;100.00
64340;BME280;63709;53.258;-8.814;2023-05-25T08:10:43;103491.81;;;18.53;100.00
64340;BME280;63709;53.258;-8.814;2023-05-25T08:13:16;103494.06;;;18.47;100.00
64340;BME280;63709;53.258;-8.814;2023-05-25T08:15:42;103489.41;;;18.49;100.00
64340;BME280;63709;53.258;-8.814;2023-05-25T08:18:09;103473.44;;;18.58;100.00
64340;BME280;63709;53.258;-8.814;2023-05-25T08:20:34;103482.81;;;18.53;100.00
64340;BME280;63709;53.258;-8.814;2023-05-25T08:23:01;103475.38;;;18.56;100.00
64340;BME280;63709;53.258;-8.814;2023-05-25T08:25:27;103469.50;;;18.50;100.00
64340;BME280;63709;53.258;-8.814;2023-05-25T08:27:54;103485.28;;;18.70;100.00
64340;BME280;63709;53.258;-8.814;2023-05-25T08:30:20;103474.97;;;18.90;100.00
64340;BME280;63709;53.258;-8.814;2023-05-25T08:32:46;103469.22;;;18.81;100.00
64340;BME280;63709;53.258;-8.814;2023-05-25T08:35:11;103488.88;;;18.71;100.00
64340;BME280;63709;53.258;-8.814;2023-05-25T08:37:45;103489.56;;;18.87;100.00
64340;BME280;63709;53.258;-8.814;2023-05-25T08:40:14;103489.81;;;18.84;100.00
64340;BME280;63709;53.258;-8.814;2023-05-25T08:42:42;103491.69;;;18.96;100.00
64340;BME280;63709;53.258;-8.814;2023-05-25T08:45:08;103489.38;;;18.90;100.00
64340;BME280;63709;53.258;-8.814;2023-05-25T08:47:42;103491.94;;;19.06;100.00
64340;BME280;63709;53.258;-8.814;2023-05-25T08:50:10;103486.13;;;19.25;100.00
64340;BME280;63709;53.258;-8.814;2023-05-25T08:52:43;103482.75;;;19.34;100.00
64340;BME280;63709;53.258;-8.814;2023-05-25T08:55:11;103489.56;;;19.27;100.00
64340;BME280;63709;53.258;-8.814;2023-05-25T08:57:45;103486.88;;;19.52;100.00
64340;BME280;63709;53.258;-8.814;2023-05-25T09:00:14;103481.34;;;19.41;100.00
64340;BME280;63709;53.258;-8.814;2023-05-25T09:03:12;103487.78;;;19.66;100.00
64340;BME280;63709;53.258;-8.814;2023-05-25T09:05:40;103486.03;;;19.65;100.00
64340;BME280;63709;53.258;-8.814;2023-05-25T09:08:07;103486.13;;;19.76;100.00
64340;BME280;63709;53.258;-8.814;2023-05-25T09:10:39;103483.75;;;19.71;100.00
64340;BME280;63709;53.258;-8.814;2023-05-25T09:13:04;103493.72;;;19.83;100.00
64340;BME280;63709;53.258;-8.814;2023-05-25T09:15:31;103492.28;;;19.91;100.00
64340;BME280;63709;53.258;-8.814;2023-05-25T09:17:57;103486.78;;;19.92;100.00
64340;BME280;63709;53.258;-8.814;2023-05-25T09:20:23;103494.69;;;19.82;100.00
64340;BME280;63709;53.258;-8.814;2023-05-25T09:22:59;103492.41;;;19.89;100.00
64340;BME280;63709;53.258;-8.814;2023-05-25T09:25:27;103490.03;;;19.72;100.00
64340;BME280;63709;53.258;-8.814;2023-05-25T09:27:54;103493.28;;;19.90;100.00
64340;BME280;63709;53.258;-8.814;2023-05-25T09:30:23;103488.06;;;19.87;100.00
64340;BME280;63709;53.258;-8.814;2023-05-25T09:32:49;103470.19;;;19.71;100.00
64340;BME280;63709;53.258;-8.814;2023-05-25T09:35:17;103464.22;;;19.79;100.00
64340;BME280;63709;53.258;-8.814;2023-05-25T09:37:43;103472.44;;;19.90;100.00
64340;BME280;63709;53.258;-8.814;2023-05-25T09:40:10;103478.19;;;19.98;100.00
64340;BME280;63709;53.258;-8.814;2023-05-25T09:42:37;103482.94;;;20.08;100.00
64340;BME280;63709;53.258;-8.814;2023-05-25T09:45:04;103465.50;;;19.99;100.00
64340;BME280;63709;53.258;-8.814;2023-05-25T09:47:30;103481.41;;;20.16;100.00
64340;BME280;63709;53.258;-8.814;2023-05-25T09:49:57;103481.19;;;20.19;100.00
64340;BME280;63709;53.258;-8.814;2023-05-25T09:52:26;103481.31;;;20.18;100.00
64340;BME280;63709;53.258;-8.814;2023-05-25T09:54:51;103470.13;;;20.10;100.00
64340;BME280;63709;53.258;-8.814;2023-05-25T09:57:19;103485.97;;;20.16;100.00
64340;BME280;63709;53.258;-8.814;2023-05-25T09:59:46;103485.31;;;20.25;100.00
64340;BME280;63709;53.258;-8.814;2023-05-25T10:02:13;103479.81;;;20.14;100.00
64340;BME280;63709;53.258;-8.814;2023-05-25T10:04:39;103479.75;;;20.26;100.00
64340;BME280;63709;53.258;-8.814;2023-05-25T10:07:06;103481.81;;;20.23;100.00
64340;BME280;63709;53.258;-8.814;2023-05-25T10:09:38;103491.91;;;20.21;100.00
64340;BME280;63709;53.258;-8.814;2023-05-25T10:12:06;103487.13;;;20.24;100.00
64340;BME280;63709;53.258;-8.814;2023-05-25T10:14:35;103490.25;;;20.31;100.00
64340;BME280;63709;53.258;-8.814;2023-05-25T10:17:03;103493.25;;;20.39;100.00
64340;BME280;63709;53.258;-8.814;2023-05-25T10:19:36;103483.88;;;20.32;100.00
64340;BME280;63709;53.258;-8.814;2023-05-25T10:27:38;103485.13;;;20.39;100.00
64340;BME280;63709;53.258;-8.814;2023-05-25T10:30:05;103479.56;;;20.53;100.00
64340;BME280;63709;53.258;-8.814;2023-05-25T10:32:33;103476.59;;;20.33;100.00
64340;BME280;63709;53.258;-8.814;2023-05-25T10:35:02;103475.13;;;20.52;100.00
64340;BME280;63709;53.258;-8.814;2023-05-25T10:37:28;103488.31;;;20.70;100.00
64340;BME280;63709;53.258;-8.814;2023-05-25T10:39:56;103493.06;;;20.90;100.00
64340;BME280;63709;53.258;-8.814;2023-05-25T10:42:24;103463.06;;;20.81;100.00
64340;BME280;63709;53.258;-8.814;2023-05-25T10:44:51;103493.81;;;20.92;100.00
64340;BME280;63709;53.258;-8.814;2023-05-25T10:47:18;103495.22;;;21.09;100.00
64340;BME280;63709;53.258;-8.814;2023-05-25T10:49:55;103476.34;;;21.08;100.00
64340;BME280;63709;53.258;-8.814;2023-05-25T10:52:31;103477.88;;;21.23;100.00
64340;BME280;63709;53.258;-8.814;2023-05-25T10:54:59;103491.72;;;21.31;100.00
64340;BME280;63709;53.258;-8.814;2023-05-25T10:57:29;103488.38;;;21.27;100.00
64340;BME280;63709;53.258;-8.814;2023-05-25T11:00:06;103487.25;;;21.19;100.00
64340;BME280;63709;53.258;-8.814;2023-05-25T11:02:52;103496.75;;;21.24;100.00
64340;BME280;63709;53.258;-8.814;2023-05-25T11:08:17;103498.97;;;20.84;100.00
64340;BME280;63709;53.258;-8.814;2023-05-25T11:10:50;103496.59;;;20.79;100.00
64340;BME280;63709;53.258;-8.814;2023-05-25T11:13:36;103502.06;;;20.91;100.00
64340;BME280;63709;53.258;-8.814;2023-05-25T11:18:58;103501.78;;;20.83;100.00
64340;BME280;63709;53.258;-8.814;2023-05-25T11:26:28;103497.41;;;20.69;100.00
64340;BME280;63709;53.258;-8.814;2023-05-25T11:28:55;103485.69;;;20.68;100.00
64340;BME280;63709;53.258;-8.814;2023-05-25T11:31:32;103497.31;;;20.70;100.00
64340;BME280;63709;53.258;-8.814;2023-05-25T11:34:00;103497.72;;;20.77;100.00
64340;BME280;63709;53.258;-8.814;2023-05-25T11:36:28;103480.84;;;20.85;100.00
64340;BME280;63709;53.258;-8.814;2023-05-25T11:39:07;103479.34;;;20.81;100.00
64340;BME280;63709;53.258;-8.814;2023-05-25T11:41:32;103485.09;;;20.76;100.00
64340;BME280;63709;53.258;-8.814;2023-05-25T11:44:04;103474.81;;;20.44;100.00
64340;BME280;63709;53.258;-8.814;2023-05-25T11:46:31;103484.00;;;20.78;100.00
64340;BME280;63709;53.258;-8.814;2023-05-25T11:48:58;103477.63;;;20.56;100.00
64340;BME280;63709;53.258;-8.814;2023-05-25T11:51:26;103476.09;;;20.75;100.00
64340;BME280;63709;53.258;-8.814;2023-05-25T11:53:53;103474.16;;;20.77;100.00
64340;BME280;63709;53.258;-8.814;2023-05-25T11:56:20;103484.88;;;20.79;100.00
64340;BME280;63709;53.258;-8.814;2023-05-25T11:58:48;103481.84;;;20.95;100.00
64340;BME280;63709;53.258;-8.814;2023-05-25T12:01:20;103487.53;;;20.92;100.00
64340;BME280;63709;53.258;-8.814;2023-05-25T12:03:51;103485.50;;;21.07;100.00
64340;BME280;63709;53.258;-8.814;2023-05-25T12:06:31;103476.00;;;21.23;100.00
64340;BME280;63709;53.258;-8.814;2023-05-25T12:09:10;103473.44;;;21.22;100.00
64340;BME280;63709;53.258;-8.814;2023-05-25T12:11:38;103475.97;;;21.36;100.00
64340;BME280;63709;53.258;-8.814;2023-05-25T12:14:05;103483.28;;;21.12;100.00
64340;BME280;63709;53.258;-8.814;2023-05-25T12:16:33;103483.84;;;21.39;100.00
64340;BME280;63709;53.258;-8.814;2023-05-25T12:19:02;103475.84;;;21.49;100.00
64340;BME280;63709;53.258;-8.814;2023-05-25T12:21:28;103463.25;;;21.48;100.00
64340;BME280;63709;53.258;-8.814;2023-05-25T12:23:54;103471.34;;;21.25;100.00
64340;BME280;63709;53.258;-8.814;2023-05-25T12:26:20;103484.75;;;21.16;100.00
64340;BME280;63709;53.258;-8.814;2023-05-25T12:28:59;103477.56;;;21.50;100.00
64340;BME280;63709;53.258;-8.814;2023-05-25T12:31:30;103474.22;;;21.58;100.00
64340;BME280;63709;53.258;-8.814;2023-05-25T12:34:02;103482.53;;;21.56;100.00
64340;BME280;63709;53.258;-8.814;2023-05-25T12:39:10;103483.28;;;21.47;100.00
64340;BME280;63709;53.258;-8.814;2023-05-25T12:41:44;103475.22;;;21.57;100.00
64340;BME280;63709;53.258;-8.814;2023-05-25T12:46:43;103479.69;;;21.80;100.00
64340;BME280;63709;53.258;-8.814;2023-05-25T12:49:32;103471.03;;;21.86;100.00
64340;BME280;63709;53.258;-8.814;2023-05-25T12:52:01;103474.50;;;21.99;100.00
64340;BME280;63709;53.258;-8.814;2023-05-25T12:54:41;103466.44;;;22.09;100.00
64340;BME280;63709;53.258;-8.814;2023-05-25T12:57:14;103438.25;;;22.21;100.00
64340;BME280;63709;53.258;-8.814;2023-05-25T12:59:45;103467.63;;;22.82;100.00
64340;BME280;63709;53.258;-8.814;2023-05-25T13:02:12;103467.19;;;22.66;100.00